sensor_id;sensor_type;location;lat;lon;timestamp;temperature;humidity
790;DHT22;378;48.844;9.156;2022-10-31T00:02:14;12.00;99.90
790;DHT22;378;48.844;9.156;2022-10-31T00:04:41;11.90;99.90
790;DHT22;378;48.844;9.156;2022-10-31T00:07:08;11.90;99.90
790;DHT22;378;48.844;9.156;2022-10-31T00:09:35;12.00;99.90
790;DHT22;378;48.844;9.156;2022-10-31T00:12:03;11.90;99.90
790;DHT22;378;48.844;9.156;2022-10-31T00:14:30;11.90;99.90
790;DHT22;378;48.844;9.156;2022-10-31T00:17:00;11.80;99.90
790;DHT22;378;48.844;9.156;2022-10-31T00:19:27;11.80;99.90
790;DHT22;378;48.844;9.156;2022-10-31T00:21:58;11.90;99.90
790;DHT22;378;48.844;9.156;2022-10-31T00:24:25;11.90;99.90
790;DHT22;378;48.844;9.156;2022-10-31T00:26:52;11.80;99.90
790;DHT22;378;48.844;9.156;2022-10-31T00:29:20;11.80;99.90
790;DHT22;378;48.844;9.156;2022-10-31T00:31:47;11.70;99.90
790;DHT22;378;48.844;9.156;2022-10-31T00:34:13;11.70;99.90
790;DHT22;378;48.844;9.156;2022-10-31T00:36:40;11.60;99.90
790;DHT22;378;48.844;9.156;2022-10-31T00:39:07;11.50;99.90
790;DHT22;378;48.844;9.156;2022-10-31T00:41:34;11.60;99.90
790;DHT22;378;48.844;9.156;2022-10-31T00:44:01;11.50;99.90
790;DHT22;378;48.844;9.156;2022-10-31T00:46:29;11.50;99.90
790;DHT22;378;48.844;9.156;2022-10-31T00:48:56;11.50;99.90
790;DHT22;378;48.844;9.156;2022-10-31T00:51:22;11.50;99.90
790;DHT22;378;48.844;9.156;2022-10-31T00:53:49;11.50;99.90
790;DHT22;378;48.844;9.156;2022-10-31T00:56:16;11.50;99.90
790;DHT22;378;48.844;9.156;2022-10-31T00:58:43;11.60;99.90
790;DHT22;378;48.844;9.156;2022-10-31T01:01:10;11.60;99.90
790;DHT22;378;48.844;9.156;2022-10-31T01:03:38;11.50;99.90
790;DHT22;378;48.844;9.156;2022-10-31T01:06:07;11.50;99.90
790;DHT22;378;48.844;9.156;2022-10-31T01:08:35;11.50;99.90
790;DHT22;378;48.844;9.156;2022-10-31T01:11:06;11.50;99.90
790;DHT22;378;48.844;9.156;2022-10-31T01:13:33;11.50;99.90
790;DHT22;378;48.844;9.156;2022-10-31T01:16:01;11.50;99.90
790;DHT22;378;48.844;9.156;2022-10-31T01:18:28;11.50;99.90
790;DHT22;378;48.844;9.156;2022-10-31T01:21:01;11.50;99.90
790;DHT22;378;48.844;9.156;2022-10-31T01:23:28;11.30;99.90
790;DHT22;378;48.844;9.156;2022-10-31T01:26:07;11.20;99.90
790;DHT22;378;48.844;9.156;2022-10-31T01:28:36;11.20;99.90
790;DHT22;378;48.844;9.156;2022-10-31T01:31:05;11.10;99.90
790;DHT22;378;48.844;9.156;2022-10-31T01:33:32;11.10;99.90
790;DHT22;378;48.844;9.156;2022-10-31T01:36:01;11.10;99.90
790;DHT22;378;48.844;9.156;2022-10-31T01:38:36;11.00;99.90
790;DHT22;378;48.844;9.156;2022-10-31T01:41:03;11.10;99.90
790;DHT22;378;48.844;9.156;2022-10-31T01:43:45;11.10;99.90
790;DHT22;378;48.844;9.156;2022-10-31T01:46:13;11.10;99.90
790;DHT22;378;48.844;9.156;2022-10-31T01:48:42;11.00;99.90
790;DHT22;378;48.844;9.156;2022-10-31T01:51:12;11.00;99.90
790;DHT22;378;48.844;9.156;2022-10-31T01:53:40;10.90;99.90
790;DHT22;378;48.844;9.156;2022-10-31T01:56:09;10.90;99.90
790;DHT22;378;48.844;9.156;2022-10-31T01:58:39;10.80;99.90
790;DHT22;378;48.844;9.156;2022-10-31T02:01:06;10.80;99.90
790;DHT22;378;48.844;9.156;2022-10-31T02:03:33;10.80;99.90
790;DHT22;378;48.844;9.156;2022-10-31T02:06:00;10.70;99.90
790;DHT22;378;48.844;9.156;2022-10-31T02:08:29;10.70;99.90
790;DHT22;378;48.844;9.156;2022-10-31T02:10:57;10.70;99.90
790;DHT22;378;48.844;9.156;2022-10-31T02:13:25;10.70;99.90
790;DHT22;378;48.844;9.156;2022-10-31T02:15:54;10.70;99.90
790;DHT22;378;48.844;9.156;2022-10-31T02:18:22;10.60;99.90
790;DHT22;378;48.844;9.156;2022-10-31T02:20:58;10.60;99.90
790;DHT22;378;48.844;9.156;2022-10-31T02:23:45;10.60;99.90
790;DHT22;378;48.844;9.156;2022-10-31T02:29:52;10.50;99.90
790;DHT22;378;48.844;9.156;2022-10-31T02:32:26;10.50;99.90
790;DHT22;378;48.844;9.156;2022-10-31T02:34:59;10.60;99.90
790;DHT22;378;48.844;9.156;2022-10-31T02:37:34;10.60;99.90
790;DHT22;378;48.844;9.156;2022-10-31T02:40:08;10.60;99.90
790;DHT22;378;48.844;9.156;2022-10-31T02:42:43;10.60;99.90
790;DHT22;378;48.844;9.156;2022-10-31T02:45:17;10.60;99.90
790;DHT22;378;48.844;9.156;2022-10-31T02:47:49;10.70;99.90
790;DHT22;378;48.844;9.156;2022-10-31T02:50:21;10.70;99.90
790;DHT22;378;48.844;9.156;2022-10-31T02:52:51;10.70;99.90
790;DHT22;378;48.844;9.156;2022-10-31T02:55:54;10.80;99.90
790;DHT22;378;48.844;9.156;2022-10-31T02:58:25;10.80;99.90
790;DHT22;378;48.844;9.156;2022-10-31T03:01:12;10.70;99.90
790;DHT22;378;48.844;9.156;2022-10-31T03:03:51;10.70;99.90
790;DHT22;378;48.844;9.156;2022-10-31T03:06:29;10.60;99.90
790;DHT22;378;48.844;9.156;2022-10-31T03:09:03;10.60;99.90
790;DHT22;378;48.844;9.156;2022-10-31T03:11:39;10.60;99.90
790;DHT22;378;48.844;9.156;2022-10-31T03:14:10;10.60;99.90
790;DHT22;378;48.844;9.156;2022-10-31T03:16:42;10.60;99.90
790;DHT22;378;48.844;9.156;2022-10-31T03:19:16;10.50;99.90
790;DHT22;378;48.844;9.156;2022-10-31T03:21:45;10.40;99.90
790;DHT22;378;48.844;9.156;2022-10-31T03:24:15;10.40;99.90
790;DHT22;378;48.844;9.156;2022-10-31T03:26:46;10.40;99.90
790;DHT22;378;48.844;9.156;2022-10-31T03:29:16;10.30;99.90
790;DHT22;378;48.844;9.156;2022-10-31T03:31:47;10.50;99.90
790;DHT22;378;48.844;9.156;2022-10-31T03:34:18;10.50;99.90
790;DHT22;378;48.844;9.156;2022-10-31T03:36:49;10.60;99.90
790;DHT22;378;48.844;9.156;2022-10-31T03:39:19;10.60;99.90
790;DHT22;378;48.844;9.156;2022-10-31T03:41:53;10.50;99.90
790;DHT22;378;48.844;9.156;2022-10-31T03:44:22;10.50;99.90
790;DHT22;378;48.844;9.156;2022-10-31T03:46:50;10.50;99.90
790;DHT22;378;48.844;9.156;2022-10-31T03:49:18;10.50;99.90
790;DHT22;378;48.844;9.156;2022-10-31T03:51:49;10.40;99.90
790;DHT22;378;48.844;9.156;2022-10-31T03:54:24;10.40;99.90
790;DHT22;378;48.844;9.156;2022-10-31T03:56:54;10.30;99.90
790;DHT22;378;48.844;9.156;2022-10-31T03:59:26;10.30;99.90
790;DHT22;378;48.844;9.156;2022-10-31T04:01:57;10.30;99.90
790;DHT22;378;48.844;9.156;2022-10-31T04:04:26;10.20;99.90
790;DHT22;378;48.844;9.156;2022-10-31T04:06:55;10.20;99.90
790;DHT22;378;48.844;9.156;2022-10-31T04:09:23;10.10;99.90
790;DHT22;378;48.844;9.156;2022-10-31T04:11:53;10.10;99.90
790;DHT22;378;48.844;9.156;2022-10-31T04:14:20;10.00;99.90
790;DHT22;378;48.844;9.156;2022-10-31T04:16:48;10.00;99.90
790;DHT22;378;48.844;9.156;2022-10-31T04:19:15;10.00;99.90
790;DHT22;378;48.844;9.156;2022-10-31T04:21:43;10.00;99.90
790;DHT22;378;48.844;9.156;2022-10-31T04:24:10;10.00;99.90
790;DHT22;378;48.844;9.156;2022-10-31T04:26:37;10.00;99.90
790;DHT22;378;48.844;9.156;2022-10-31T04:29:04;10.00;99.90
790;DHT22;378;48.844;9.156;2022-10-31T04:31:31;9.90;99.90
790;DHT22;378;48.844;9.156;2022-10-31T04:33:58;9.90;99.90
790;DHT22;378;48.844;9.156;2022-10-31T04:36:24;9.90;99.90
790;DHT22;378;48.844;9.156;2022-10-31T04:38:52;9.90;99.90
790;DHT22;378;48.844;9.156;2022-10-31T04:41:19;9.90;99.90
790;DHT22;378;48.844;9.156;2022-10-31T04:43:46;9.90;99.90
790;DHT22;378;48.844;9.156;2022-10-31T04:46:13;9.90;99.90
790;DHT22;378;48.844;9.156;2022-10-31T04:48:39;9.80;99.90
790;DHT22;378;48.844;9.156;2022-10-31T04:51:06;9.90;99.90
790;DHT22;378;48.844;9.156;2022-10-31T04:53:33;9.80;99.90
790;DHT22;378;48.844;9.156;2022-10-31T04:56:01;9.90;99.90
790;DHT22;378;48.844;9.156;2022-10-31T04:58:28;9.90;99.90
790;DHT22;378;48.844;9.156;2022-10-31T05:00:55;9.90;99.90
790;DHT22;378;48.844;9.156;2022-10-31T05:03:22;9.90;99.90
790;DHT22;378;48.844;9.156;2022-10-31T05:05:49;9.90;99.90
790;DHT22;378;48.844;9.156;2022-10-31T05:08:16;9.90;99.90
790;DHT22;378;48.844;9.156;2022-10-31T05:10:43;9.90;99.90
790;DHT22;378;48.844;9.156;2022-10-31T05:13:11;9.90;99.90
790;DHT22;378;48.844;9.156;2022-10-31T05:15:40;10.00;99.90
790;DHT22;378;48.844;9.156;2022-10-31T05:18:07;9.90;99.90
790;DHT22;378;48.844;9.156;2022-10-31T05:20:33;9.80;99.90
790;DHT22;378;48.844;9.156;2022-10-31T05:23:00;9.80;99.90
790;DHT22;378;48.844;9.156;2022-10-31T05:25:28;9.80;99.90
790;DHT22;378;48.844;9.156;2022-10-31T05:27:55;9.70;99.90
790;DHT22;378;48.844;9.156;2022-10-31T05:30:26;9.70;99.90
790;DHT22;378;48.844;9.156;2022-10-31T05:32:53;9.80;99.90
790;DHT22;378;48.844;9.156;2022-10-31T05:35:23;9.80;99.90
790;DHT22;378;48.844;9.156;2022-10-31T05:37:50;9.70;99.90
790;DHT22;378;48.844;9.156;2022-10-31T05:40:18;9.70;99.90
790;DHT22;378;48.844;9.156;2022-10-31T05:42:45;9.60;99.90
790;DHT22;378;48.844;9.156;2022-10-31T05:45:14;9.50;99.90
790;DHT22;378;48.844;9.156;2022-10-31T05:47:49;9.50;99.90
790;DHT22;378;48.844;9.156;2022-10-31T05:50:16;9.50;99.90
790;DHT22;378;48.844;9.156;2022-10-31T05:52:43;9.60;99.90
790;DHT22;378;48.844;9.156;2022-10-31T05:55:09;9.60;99.90
790;DHT22;378;48.844;9.156;2022-10-31T05:57:36;9.60;99.90
790;DHT22;378;48.844;9.156;2022-10-31T06:00:04;9.70;99.90
790;DHT22;378;48.844;9.156;2022-10-31T06:02:31;9.90;99.90
790;DHT22;378;48.844;9.156;2022-10-31T06:05:01;9.90;99.90
790;DHT22;378;48.844;9.156;2022-10-31T06:07:32;9.90;99.90
790;DHT22;378;48.844;9.156;2022-10-31T06:09:59;9.80;99.90
790;DHT22;378;48.844;9.156;2022-10-31T06:12:26;9.70;99.90
790;DHT22;378;48.844;9.156;2022-10-31T06:14:52;9.70;99.90
790;DHT22;378;48.844;9.156;2022-10-31T06:17:19;9.60;99.90
790;DHT22;378;48.844;9.156;2022-10-31T06:19:46;9.60;99.90
790;DHT22;378;48.844;9.156;2022-10-31T06:22:14;9.60;99.90
790;DHT22;378;48.844;9.156;2022-10-31T06:24:41;9.60;99.90
790;DHT22;378;48.844;9.156;2022-10-31T06:27:08;9.70;99.90
790;DHT22;378;48.844;9.156;2022-10-31T06:29:34;9.70;99.90
790;DHT22;378;48.844;9.156;2022-10-31T06:32:01;9.70;99.90
790;DHT22;378;48.844;9.156;2022-10-31T06:34:28;9.70;99.90
790;DHT22;378;48.844;9.156;2022-10-31T06:36:55;9.70;99.90
790;DHT22;378;48.844;9.156;2022-10-31T06:39:23;9.70;99.90
790;DHT22;378;48.844;9.156;2022-10-31T06:41:49;9.70;99.90
790;DHT22;378;48.844;9.156;2022-10-31T06:44:16;9.70;99.90
790;DHT22;378;48.844;9.156;2022-10-31T06:46:43;9.80;99.90
790;DHT22;378;48.844;9.156;2022-10-31T06:49:12;9.80;99.90
790;DHT22;378;48.844;9.156;2022-10-31T06:51:38;9.90;99.90
790;DHT22;378;48.844;9.156;2022-10-31T06:54:05;9.90;99.90
790;DHT22;378;48.844;9.156;2022-10-31T06:56:33;10.00;99.90
790;DHT22;378;48.844;9.156;2022-10-31T06:59:00;10.10;99.90
790;DHT22;378;48.844;9.156;2022-10-31T07:01:27;10.10;99.90
790;DHT22;378;48.844;9.156;2022-10-31T07:03:54;10.20;99.90
790;DHT22;378;48.844;9.156;2022-10-31T07:06:20;10.30;99.90
790;DHT22;378;48.844;9.156;2022-10-31T07:08:47;10.40;99.90
790;DHT22;378;48.844;9.156;2022-10-31T07:11:14;10.50;99.90
790;DHT22;378;48.844;9.156;2022-10-31T07:13:42;10.50;99.90
790;DHT22;378;48.844;9.156;2022-10-31T07:16:09;10.60;99.90
790;DHT22;378;48.844;9.156;2022-10-31T07:18:37;10.80;99.90
790;DHT22;378;48.844;9.156;2022-10-31T07:21:04;10.80;99.90
790;DHT22;378;48.844;9.156;2022-10-31T07:23:31;10.90;99.90
790;DHT22;378;48.844;9.156;2022-10-31T07:25:58;11.00;99.90
790;DHT22;378;48.844;9.156;2022-10-31T07:28:26;11.00;99.90
790;DHT22;378;48.844;9.156;2022-10-31T07:30:55;11.10;99.90
790;DHT22;378;48.844;9.156;2022-10-31T07:33:23;11.30;99.90
790;DHT22;378;48.844;9.156;2022-10-31T07:35:51;11.40;99.90
790;DHT22;378;48.844;9.156;2022-10-31T07:38:18;11.50;99.90
790;DHT22;378;48.844;9.156;2022-10-31T07:40:49;11.60;99.90
790;DHT22;378;48.844;9.156;2022-10-31T07:43:16;11.70;99.90
790;DHT22;378;48.844;9.156;2022-10-31T07:45:43;11.90;99.90
790;DHT22;378;48.844;9.156;2022-10-31T07:48:11;12.10;99.90
790;DHT22;378;48.844;9.156;2022-10-31T07:50:38;12.30;99.90
790;DHT22;378;48.844;9.156;2022-10-31T07:53:06;12.60;99.90
790;DHT22;378;48.844;9.156;2022-10-31T07:55:34;12.80;99.90
790;DHT22;378;48.844;9.156;2022-10-31T07:58:02;13.10;99.90
790;DHT22;378;48.844;9.156;2022-10-31T08:00:29;13.40;99.90
790;DHT22;378;48.844;9.156;2022-10-31T08:02:57;13.60;99.90
790;DHT22;378;48.844;9.156;2022-10-31T08:05:26;13.70;99.90
790;DHT22;378;48.844;9.156;2022-10-31T08:07:52;13.90;99.90
790;DHT22;378;48.844;9.156;2022-10-31T08:10:19;14.00;99.90
790;DHT22;378;48.844;9.156;2022-10-31T08:12:46;14.20;99.90
790;DHT22;378;48.844;9.156;2022-10-31T08:15:13;14.30;99.90
790;DHT22;378;48.844;9.156;2022-10-31T08:17:40;14.50;99.90
790;DHT22;378;48.844;9.156;2022-10-31T08:20:07;14.60;99.90
790;DHT22;378;48.844;9.156;2022-10-31T08:22:36;14.70;99.90
790;DHT22;378;48.844;9.156;2022-10-31T08:25:03;14.70;99.90
790;DHT22;378;48.844;9.156;2022-10-31T08:27:29;14.70;99.90
790;DHT22;378;48.844;9.156;2022-10-31T08:29:56;14.50;99.90
790;DHT22;378;48.844;9.156;2022-10-31T08:32:23;14.40;99.90
790;DHT22;378;48.844;9.156;2022-10-31T08:34:50;14.20;99.90
790;DHT22;378;48.844;9.156;2022-10-31T08:37:17;14.20;99.90
790;DHT22;378;48.844;9.156;2022-10-31T08:39:46;14.20;99.90
790;DHT22;378;48.844;9.156;2022-10-31T08:42:13;14.30;99.90
790;DHT22;378;48.844;9.156;2022-10-31T08:44:40;14.30;99.90
790;DHT22;378;48.844;9.156;2022-10-31T08:47:07;14.30;99.90
790;DHT22;378;48.844;9.156;2022-10-31T08:49:34;14.20;99.90
790;DHT22;378;48.844;9.156;2022-10-31T08:52:00;14.00;99.90
790;DHT22;378;48.844;9.156;2022-10-31T08:54:27;14.00;99.90
790;DHT22;378;48.844;9.156;2022-10-31T08:56:56;14.00;99.90
790;DHT22;378;48.844;9.156;2022-10-31T08:59:23;14.10;99.90
790;DHT22;378;48.844;9.156;2022-10-31T09:01:49;14.20;99.90
790;DHT22;378;48.844;9.156;2022-10-31T09:04:16;14.10;99.90
790;DHT22;378;48.844;9.156;2022-10-31T09:06:43;14.20;99.90
790;DHT22;378;48.844;9.156;2022-10-31T09:09:10;14.30;99.90
790;DHT22;378;48.844;9.156;2022-10-31T09:11:36;14.40;99.90
790;DHT22;378;48.844;9.156;2022-10-31T09:14:04;14.50;99.90
790;DHT22;378;48.844;9.156;2022-10-31T09:16:31;14.70;99.90
790;DHT22;378;48.844;9.156;2022-10-31T09:18:58;14.90;99.90
790;DHT22;378;48.844;9.156;2022-10-31T09:21:25;15.10;99.90
790;DHT22;378;48.844;9.156;2022-10-31T09:23:51;15.20;99.90
790;DHT22;378;48.844;9.156;2022-10-31T09:26:19;15.40;99.90
790;DHT22;378;48.844;9.156;2022-10-31T09:28:46;15.40;99.90
790;DHT22;378;48.844;9.156;2022-10-31T09:31:14;15.40;99.90
790;DHT22;378;48.844;9.156;2022-10-31T09:33:41;15.40;99.90
790;DHT22;378;48.844;9.156;2022-10-31T09:36:08;15.50;99.90
790;DHT22;378;48.844;9.156;2022-10-31T09:38:35;15.50;99.90
790;DHT22;378;48.844;9.156;2022-10-31T09:41:07;15.70;99.90
790;DHT22;378;48.844;9.156;2022-10-31T09:43:45;15.80;99.90
790;DHT22;378;48.844;9.156;2022-10-31T09:46:22;15.70;99.90
790;DHT22;378;48.844;9.156;2022-10-31T09:49:01;15.70;99.90
790;DHT22;378;48.844;9.156;2022-10-31T09:51:34;15.60;99.90
790;DHT22;378;48.844;9.156;2022-10-31T09:54:05;15.50;99.90
790;DHT22;378;48.844;9.156;2022-10-31T09:56:33;15.40;99.90
790;DHT22;378;48.844;9.156;2022-10-31T09:59:03;15.40;99.90
790;DHT22;378;48.844;9.156;2022-10-31T10:01:41;15.50;99.90
790;DHT22;378;48.844;9.156;2022-10-31T10:04:31;15.60;99.90
790;DHT22;378;48.844;9.156;2022-10-31T10:07:02;15.70;99.90
790;DHT22;378;48.844;9.156;2022-10-31T10:09:32;15.70;99.90
790;DHT22;378;48.844;9.156;2022-10-31T10:12:07;15.80;99.90
790;DHT22;378;48.844;9.156;2022-10-31T10:14:45;15.80;99.90
790;DHT22;378;48.844;9.156;2022-10-31T10:17:29;15.90;99.90
790;DHT22;378;48.844;9.156;2022-10-31T10:20:16;16.10;99.90
790;DHT22;378;48.844;9.156;2022-10-31T10:22:52;16.30;99.90
790;DHT22;378;48.844;9.156;2022-10-31T10:25:22;16.50;99.90
790;DHT22;378;48.844;9.156;2022-10-31T10:27:58;16.50;99.90
790;DHT22;378;48.844;9.156;2022-10-31T10:30:32;16.60;99.90
790;DHT22;378;48.844;9.156;2022-10-31T10:33:04;16.80;99.90
790;DHT22;378;48.844;9.156;2022-10-31T10:35:33;17.00;99.90
790;DHT22;378;48.844;9.156;2022-10-31T10:38:03;17.00;99.90
790;DHT22;378;48.844;9.156;2022-10-31T10:40:35;17.00;99.90
790;DHT22;378;48.844;9.156;2022-10-31T10:43:17;17.20;99.90
790;DHT22;378;48.844;9.156;2022-10-31T10:45:56;17.30;99.90
790;DHT22;378;48.844;9.156;2022-10-31T10:48:46;17.30;99.90
790;DHT22;378;48.844;9.156;2022-10-31T10:51:21;17.50;99.90
790;DHT22;378;48.844;9.156;2022-10-31T10:54:03;17.50;99.90
790;DHT22;378;48.844;9.156;2022-10-31T10:56:39;17.50;99.90
790;DHT22;378;48.844;9.156;2022-10-31T10:59:10;17.50;99.90
790;DHT22;378;48.844;9.156;2022-10-31T11:01:39;17.50;99.90
790;DHT22;378;48.844;9.156;2022-10-31T11:04:25;17.50;99.90
790;DHT22;378;48.844;9.156;2022-10-31T11:07:05;17.40;99.90
790;DHT22;378;48.844;9.156;2022-10-31T11:09:34;17.50;99.90
790;DHT22;378;48.844;9.156;2022-10-31T11:12:07;17.60;99.90
790;DHT22;378;48.844;9.156;2022-10-31T11:14:37;17.70;99.90
790;DHT22;378;48.844;9.156;2022-10-31T11:17:16;17.80;99.90
790;DHT22;378;48.844;9.156;2022-10-31T11:19:45;17.70;99.90
790;DHT22;378;48.844;9.156;2022-10-31T11:22:16;17.70;99.90
790;DHT22;378;48.844;9.156;2022-10-31T11:24:43;17.80;99.90
790;DHT22;378;48.844;9.156;2022-10-31T11:27:15;17.90;99.90
790;DHT22;378;48.844;9.156;2022-10-31T11:29:42;17.80;99.90
790;DHT22;378;48.844;9.156;2022-10-31T11:32:19;18.00;99.90
790;DHT22;378;48.844;9.156;2022-10-31T11:34:50;18.00;99.90
790;DHT22;378;48.844;9.156;2022-10-31T11:37:20;18.10;99.90
790;DHT22;378;48.844;9.156;2022-10-31T11:39:50;18.10;99.90
790;DHT22;378;48.844;9.156;2022-10-31T11:42:20;18.10;99.90
790;DHT22;378;48.844;9.156;2022-10-31T11:44:48;18.40;99.90
790;DHT22;378;48.844;9.156;2022-10-31T11:47:17;18.40;99.90
790;DHT22;378;48.844;9.156;2022-10-31T11:49:46;18.50;99.90
790;DHT22;378;48.844;9.156;2022-10-31T11:52:18;18.40;99.90
790;DHT22;378;48.844;9.156;2022-10-31T11:54:49;18.40;99.90
790;DHT22;378;48.844;9.156;2022-10-31T11:57:23;18.60;99.90
790;DHT22;378;48.844;9.156;2022-10-31T11:59:51;18.70;99.90
790;DHT22;378;48.844;9.156;2022-10-31T12:02:20;18.80;99.90
790;DHT22;378;48.844;9.156;2022-10-31T12:04:52;18.90;99.90
790;DHT22;378;48.844;9.156;2022-10-31T12:07:22;18.90;99.90
790;DHT22;378;48.844;9.156;2022-10-31T12:09:49;19.00;99.90
790;DHT22;378;48.844;9.156;2022-10-31T12:12:37;19.00;99.90
790;DHT22;378;48.844;9.156;2022-10-31T12:15:17;19.10;99.90
790;DHT22;378;48.844;9.156;2022-10-31T12:17:51;19.20;99.90
790;DHT22;378;48.844;9.156;2022-10-31T12:20:29;19.10;99.90
790;DHT22;378;48.844;9.156;2022-10-31T12:23:05;19.30;99.90
790;DHT22;378;48.844;9.156;2022-10-31T12:25:40;19.40;99.90
790;DHT22;378;48.844;9.156;2022-10-31T12:31:25;19.70;99.90
790;DHT22;378;48.844;9.156;2022-10-31T12:34:06;19.90;99.90
790;DHT22;378;48.844;9.156;2022-10-31T12:36:44;20.00;99.90
790;DHT22;378;48.844;9.156;2022-10-31T12:39:25;20.00;99.90
790;DHT22;378;48.844;9.156;2022-10-31T12:42:05;19.90;99.90
790;DHT22;378;48.844;9.156;2022-10-31T12:44:57;19.80;99.90
790;DHT22;378;48.844;9.156;2022-10-31T12:47:38;19.70;99.90
790;DHT22;378;48.844;9.156;2022-10-31T12:50:24;19.60;99.90
790;DHT22;378;48.844;9.156;2022-10-31T12:53:04;19.50;99.90
790;DHT22;378;48.844;9.156;2022-10-31T12:55:54;19.40;99.90
790;DHT22;378;48.844;9.156;2022-10-31T12:58:25;19.20;99.90
790;DHT22;378;48.844;9.156;2022-10-31T13:01:08;19.00;99.90
790;DHT22;378;48.844;9.156;2022-10-31T13:03:41;18.80;99.90
790;DHT22;378;48.844;9.156;2022-10-31T13:06:15;18.70;99.90
790;DHT22;378;48.844;9.156;2022-10-31T13:08:47;18.70;99.90
790;DHT22;378;48.844;9.156;2022-10-31T13:11:17;18.60;99.90
790;DHT22;378;48.844;9.156;2022-10-31T13:13:54;18.60;99.90
790;DHT22;378;48.844;9.156;2022-10-31T13:16:26;18.70;99.90
790;DHT22;378;48.844;9.156;2022-10-31T13:18:57;18.60;99.90
790;DHT22;378;48.844;9.156;2022-10-31T13:21:27;18.50;99.90
790;DHT22;378;48.844;9.156;2022-10-31T13:23:59;18.40;99.90
790;DHT22;378;48.844;9.156;2022-10-31T13:26:36;18.30;99.90
790;DHT22;378;48.844;9.156;2022-10-31T13:29:11;18.20;99.90
790;DHT22;378;48.844;9.156;2022-10-31T13:31:40;18.10;99.90
790;DHT22;378;48.844;9.156;2022-10-31T13:34:13;18.10;99.90
790;DHT22;378;48.844;9.156;2022-10-31T13:36:48;18.00;99.90
790;DHT22;378;48.844;9.156;2022-10-31T13:39:25;18.20;99.90
790;DHT22;378;48.844;9.156;2022-10-31T13:42:03;18.10;99.90
790;DHT22;378;48.844;9.156;2022-10-31T13:44:36;18.20;99.90
790;DHT22;378;48.844;9.156;2022-10-31T13:47:19;18.50;99.90
790;DHT22;378;48.844;9.156;2022-10-31T13:49:46;18.80;99.90
790;DHT22;378;48.844;9.156;2022-10-31T13:52:15;19.00;99.90
790;DHT22;378;48.844;9.156;2022-10-31T13:54:44;19.10;99.90
790;DHT22;378;48.844;9.156;2022-10-31T13:57:24;19.20;99.90
790;DHT22;378;48.844;9.156;2022-10-31T13:59:55;19.20;99.90
790;DHT22;378;48.844;9.156;2022-10-31T14:02:26;19.20;99.90
790;DHT22;378;48.844;9.156;2022-10-31T14:04:57;18.90;99.90
790;DHT22;378;48.844;9.156;2022-10-31T14:07:26;18.70;99.90
790;DHT22;378;48.844;9.156;2022-10-31T14:10:56;18.50;99.90
790;DHT22;378;48.844;9.156;2022-10-31T14:13:29;18.50;99.90
790;DHT22;378;48.844;9.156;2022-10-31T14:16:00;18.50;99.90
790;DHT22;378;48.844;9.156;2022-10-31T14:18:31;18.60;99.90
790;DHT22;378;48.844;9.156;2022-10-31T14:20:58;18.70;99.90
790;DHT22;378;48.844;9.156;2022-10-31T14:23:39;18.70;99.90
790;DHT22;378;48.844;9.156;2022-10-31T14:31:51;18.60;99.90
790;DHT22;378;48.844;9.156;2022-10-31T14:34:22;18.60;99.90
790;DHT22;378;48.844;9.156;2022-10-31T14:36:58;18.60;99.90
790;DHT22;378;48.844;9.156;2022-10-31T14:39:29;18.60;99.90
790;DHT22;378;48.844;9.156;2022-10-31T14:42:07;18.60;99.90
790;DHT22;378;48.844;9.156;2022-10-31T14:44:57;18.50;99.90
790;DHT22;378;48.844;9.156;2022-10-31T14:47:36;18.40;99.90
790;DHT22;378;48.844;9.156;2022-10-31T14:50:23;18.30;99.90
790;DHT22;378;48.844;9.156;2022-10-31T14:52:53;18.30;99.90
790;DHT22;378;48.844;9.156;2022-10-31T14:55:21;18.20;99.90
790;DHT22;378;48.844;9.156;2022-10-31T14:57:51;18.10;99.90
790;DHT22;378;48.844;9.156;2022-10-31T15:00:22;18.10;99.90
790;DHT22;378;48.844;9.156;2022-10-31T15:02:59;18.10;99.90
790;DHT22;378;48.844;9.156;2022-10-31T15:05:29;18.10;99.90
790;DHT22;378;48.844;9.156;2022-10-31T15:07:57;18.10;99.90
790;DHT22;378;48.844;9.156;2022-10-31T15:10:27;18.00;99.90
790;DHT22;378;48.844;9.156;2022-10-31T15:12:55;18.10;99.90
790;DHT22;378;48.844;9.156;2022-10-31T15:15:24;18.00;99.90
790;DHT22;378;48.844;9.156;2022-10-31T15:17:53;17.90;99.90
790;DHT22;378;48.844;9.156;2022-10-31T15:20:22;17.90;99.90
790;DHT22;378;48.844;9.156;2022-10-31T15:22:50;17.80;99.90
790;DHT22;378;48.844;9.156;2022-10-31T15:25:19;17.60;99.90
790;DHT22;378;48.844;9.156;2022-10-31T15:27:47;17.40;99.90
790;DHT22;378;48.844;9.156;2022-10-31T15:30:17;17.10;99.90
790;DHT22;378;48.844;9.156;2022-10-31T15:36:20;16.70;99.90
790;DHT22;378;48.844;9.156;2022-10-31T15:38:48;16.50;99.90
790;DHT22;378;48.844;9.156;2022-10-31T15:41:24;16.40;99.90
790;DHT22;378;48.844;9.156;2022-10-31T15:43:55;16.20;99.90
790;DHT22;378;48.844;9.156;2022-10-31T15:46:23;16.00;99.90
790;DHT22;378;48.844;9.156;2022-10-31T15:48:52;15.80;99.90
790;DHT22;378;48.844;9.156;2022-10-31T15:51:27;15.70;99.90
790;DHT22;378;48.844;9.156;2022-10-31T15:53:55;15.60;99.90
790;DHT22;378;48.844;9.156;2022-10-31T15:56:24;15.50;99.90
790;DHT22;378;48.844;9.156;2022-10-31T15:58:53;15.30;99.90
790;DHT22;378;48.844;9.156;2022-10-31T16:01:23;15.20;99.90
790;DHT22;378;48.844;9.156;2022-10-31T16:04:04;15.10;99.90
790;DHT22;378;48.844;9.156;2022-10-31T16:06:34;14.90;99.90
790;DHT22;378;48.844;9.156;2022-10-31T16:09:01;14.90;99.90
790;DHT22;378;48.844;9.156;2022-10-31T16:11:34;14.80;99.90
790;DHT22;378;48.844;9.156;2022-10-31T16:14:04;14.70;99.90
790;DHT22;378;48.844;9.156;2022-10-31T16:19:51;14.60;99.90
790;DHT22;378;48.844;9.156;2022-10-31T16:22:24;14.50;99.90
790;DHT22;378;48.844;9.156;2022-10-31T16:24:55;14.50;99.90
790;DHT22;378;48.844;9.156;2022-10-31T16:27:23;14.40;99.90
790;DHT22;378;48.844;9.156;2022-10-31T16:29:52;14.40;99.90
790;DHT22;378;48.844;9.156;2022-10-31T16:32:30;14.30;99.90
790;DHT22;378;48.844;9.156;2022-10-31T16:35:18;14.20;99.90
790;DHT22;378;48.844;9.156;2022-10-31T16:37:46;14.10;99.90
790;DHT22;378;48.844;9.156;2022-10-31T16:40:14;14.10;99.90
790;DHT22;378;48.844;9.156;2022-10-31T16:42:41;14.00;99.90
790;DHT22;378;48.844;9.156;2022-10-31T16:45:14;14.00;99.90
790;DHT22;378;48.844;9.156;2022-10-31T16:47:41;14.10;99.90
790;DHT22;378;48.844;9.156;2022-10-31T16:50:12;14.10;99.90
790;DHT22;378;48.844;9.156;2022-10-31T16:52:40;14.20;99.90
790;DHT22;378;48.844;9.156;2022-10-31T16:55:12;14.30;99.90
790;DHT22;378;48.844;9.156;2022-10-31T16:57:42;14.30;99.90
790;DHT22;378;48.844;9.156;2022-10-31T17:00:13;14.30;99.90
790;DHT22;378;48.844;9.156;2022-10-31T17:02:41;14.20;99.90
790;DHT22;378;48.844;9.156;2022-10-31T17:05:13;14.20;99.90
790;DHT22;378;48.844;9.156;2022-10-31T17:07:40;14.10;99.90
790;DHT22;378;48.844;9.156;2022-10-31T17:10:09;14.10;99.90
790;DHT22;378;48.844;9.156;2022-10-31T17:12:39;14.00;99.90
790;DHT22;378;48.844;9.156;2022-10-31T17:15:15;14.00;99.90
790;DHT22;378;48.844;9.156;2022-10-31T17:17:42;13.90;99.90
790;DHT22;378;48.844;9.156;2022-10-31T17:20:17;13.90;99.90